createdAt,value
2018-07-20T00:00:53.011Z,4.37
2018-07-20T00:03:21.611Z,4.10
2018-07-20T00:05:50.432Z,3.87
2018-07-20T00:08:18.784Z,4.03
2018-07-20T00:10:47.340Z,3.63
2018-07-20T00:13:15.947Z,3.90
2018-07-20T00:15:44.515Z,4.20
2018-07-20T00:18:13.281Z,4.13
2018-07-20T00:20:42.096Z,4.03
2018-07-20T00:23:10.905Z,4.47
2018-07-20T00:25:39.283Z,3.77
2018-07-20T00:28:07.647Z,4.37
2018-07-20T00:30:36.016Z,4.03
2018-07-20T00:33:04.314Z,3.60
2018-07-20T00:35:32.825Z,3.77
2018-07-20T00:38:01.180Z,4.00
2018-07-20T00:40:29.540Z,3.90
2018-07-20T00:42:58.151Z,4.10
2018-07-20T00:45:26.506Z,4.00
2018-07-20T00:47:55.041Z,3.80
2018-07-20T00:50:23.726Z,4.03
2018-07-20T00:52:52.044Z,3.70
2018-07-20T00:55:20.428Z,3.70
2018-07-20T00:57:48.893Z,3.80
2018-07-20T01:00:17.124Z,3.80
2018-07-20T01:02:45.594Z,3.83
2018-07-20T01:05:13.977Z,4.40
2018-07-20T01:07:42.272Z,3.60
2018-07-20T01:10:10.736Z,4.40
2018-07-20T01:12:39.031Z,4.10
2018-07-20T01:15:07.501Z,3.20
2018-07-20T01:17:35.849Z,3.60
2018-07-20T01:20:04.875Z,3.53
2018-07-20T01:22:33.278Z,3.87
2018-07-20T01:25:01.585Z,4.00
2018-07-20T01:27:30.047Z,3.80
2018-07-20T01:29:58.466Z,3.67
2018-07-20T01:32:27.083Z,4.40
2018-07-20T01:34:55.491Z,3.77
2018-07-20T01:37:23.825Z,3.90
2018-07-20T01:39:52.233Z,3.67
2018-07-20T01:42:20.531Z,4.10
2018-07-20T01:44:48.868Z,3.80
2018-07-20T01:47:17.440Z,3.57
2018-07-20T01:49:46.015Z,3.70
2018-07-20T01:52:14.518Z,3.67
2018-07-20T01:54:43.282Z,3.23
2018-07-20T01:57:12.301Z,3.23
2018-07-20T01:59:40.872Z,3.63
2018-07-20T02:02:09.452Z,3.77
2018-07-20T02:04:37.841Z,3.57
2018-07-20T02:07:06.262Z,3.27
2018-07-20T02:09:34.632Z,3.50
2018-07-20T02:12:02.933Z,3.73
2018-07-20T02:14:31.695Z,4.00
2018-07-20T02:17:00.314Z,3.90
2018-07-20T02:19:29.034Z,3.40
2018-07-20T02:21:57.505Z,3.50
2018-07-20T02:24:25.796Z,4.03
2018-07-20T02:26:54.075Z,3.67
2018-07-20T02:29:22.642Z,3.80
2018-07-20T02:31:50.926Z,3.57
2018-07-20T02:34:19.322Z,4.03
2018-07-20T02:36:47.587Z,3.80
2018-07-20T02:39:15.855Z,3.90
2018-07-20T02:41:44.344Z,3.23
2018-07-20T02:44:12.784Z,3.20
2018-07-20T02:46:41.153Z,3.37
2018-07-20T02:49:09.679Z,3.80
2018-07-20T02:51:38.067Z,3.53
2018-07-20T02:54:06.619Z,3.67
2018-07-20T02:56:34.974Z,3.60
2018-07-20T02:59:03.300Z,3.63
2018-07-20T03:01:31.661Z,3.87
2018-07-20T03:04:01.008Z,3.70
2018-07-20T03:06:29.319Z,3.80
2018-07-20T03:08:57.684Z,4.30
2018-07-20T03:11:25.955Z,3.97
2018-07-20T03:13:54.282Z,3.57
2018-07-20T03:16:22.770Z,3.80
2018-07-20T03:18:51.404Z,3.50
2018-07-20T03:21:19.706Z,3.73
2018-07-20T03:23:48.126Z,3.43
2018-07-20T03:26:16.422Z,3.33
2018-07-20T03:28:44.935Z,3.83
2018-07-20T03:31:13.336Z,4.00
2018-07-20T03:33:41.719Z,3.37
2018-07-20T03:36:10.074Z,3.40
2018-07-20T03:38:38.416Z,3.30
2018-07-20T03:41:07.171Z,3.83
2018-07-20T03:43:35.795Z,3.70
2018-07-20T03:46:04.713Z,3.70
2018-07-20T03:48:32.979Z,3.77
2018-07-20T03:51:01.526Z,3.67
2018-07-20T03:53:29.899Z,4.27
2018-07-20T03:55:58.237Z,3.87
2018-07-20T03:58:26.734Z,3.50
2018-07-20T04:00:55.027Z,3.73
2018-07-20T04:03:23.297Z,3.73
2018-07-20T04:07:15.743Z,4.07
2018-07-20T04:09:44.400Z,3.90
2018-07-20T04:12:12.778Z,3.00
2018-07-20T04:14:41.108Z,3.10
2018-07-20T04:17:09.723Z,4.00
2018-07-20T04:19:38.215Z,4.20
2018-07-20T04:22:06.577Z,4.10
2018-07-20T04:24:35.265Z,4.60
2018-07-20T04:27:03.579Z,3.90
2018-07-20T04:29:31.923Z,4.30
2018-07-20T04:32:00.213Z,4.20
2018-07-20T04:34:28.609Z,3.97
2018-07-20T04:36:57.184Z,4.10
2018-07-20T04:39:25.846Z,3.67
2018-07-20T04:41:54.241Z,3.83
2018-07-20T04:44:22.599Z,4.10
2018-07-20T04:46:50.942Z,4.10
2018-07-20T04:49:19.375Z,4.23
2018-07-20T04:51:47.758Z,3.73
2018-07-20T04:54:16.138Z,3.97
2018-07-20T04:56:44.428Z,4.17
2018-07-20T04:59:12.759Z,4.30
2018-07-20T05:01:41.551Z,4.30
2018-07-20T05:04:09.895Z,4.23
2018-07-20T05:06:38.635Z,3.20
2018-07-20T05:09:09.283Z,3.97
2018-07-20T05:11:38.225Z,3.67
2018-07-20T05:14:06.844Z,3.50
2018-07-20T05:16:35.728Z,3.67
2018-07-20T05:19:04.319Z,3.77
2018-07-20T05:21:32.608Z,3.60
2018-07-20T05:24:01.006Z,3.93
2018-07-20T05:26:29.986Z,3.70
2018-07-20T05:28:58.357Z,4.10
2018-07-20T05:31:27.126Z,4.00
2018-07-20T05:33:55.931Z,4.30
2018-07-20T05:36:24.433Z,4.70
2018-07-20T05:38:52.816Z,3.60
2018-07-20T05:41:21.212Z,3.37
2018-07-20T05:43:49.808Z,4.13
2018-07-20T05:46:18.496Z,4.20
2018-07-20T05:48:46.863Z,4.40
2018-07-20T05:51:15.474Z,3.83
2018-07-20T05:53:43.800Z,4.53
2018-07-20T05:56:12.658Z,3.93
2018-07-20T05:58:41.111Z,3.87
2018-07-20T06:01:09.739Z,4.40
2018-07-20T06:03:38.207Z,3.90
2018-07-20T06:06:06.895Z,3.90
2018-07-20T06:08:35.533Z,3.90
2018-07-20T06:11:03.924Z,3.73
2018-07-20T06:13:32.387Z,3.90
2018-07-20T06:16:00.715Z,4.20
2018-07-20T06:18:29.116Z,4.10
2018-07-20T06:20:57.422Z,4.10
2018-07-20T06:23:25.979Z,4.40
2018-07-20T06:25:54.790Z,4.57
2018-07-20T06:28:23.161Z,3.57
2018-07-20T06:30:51.853Z,3.67
2018-07-20T06:33:20.752Z,3.60
2018-07-20T06:35:49.543Z,3.70
2018-07-20T06:38:17.897Z,3.30
2018-07-20T06:40:46.627Z,3.73
2018-07-20T06:43:15.062Z,3.80
2018-07-20T06:45:43.558Z,3.40
2018-07-20T06:48:12.105Z,3.23
2018-07-20T06:50:40.758Z,3.90
2018-07-20T06:53:09.284Z,3.07
2018-07-20T06:55:37.866Z,3.67
2018-07-20T06:58:06.439Z,3.83
2018-07-20T07:00:35.056Z,3.67
2018-07-20T07:03:03.467Z,3.70
2018-07-20T07:05:31.963Z,3.50
2018-07-20T07:08:00.294Z,3.73
2018-07-20T07:10:28.702Z,3.00
2018-07-20T07:12:57.026Z,3.97
2018-07-20T07:15:25.709Z,3.40
2018-07-20T07:17:54.147Z,3.37
2018-07-20T07:20:23.100Z,3.40
2018-07-20T07:22:51.511Z,3.90
2018-07-20T07:25:20.350Z,3.70
2018-07-20T07:27:49.700Z,3.50
2018-07-20T07:30:18.190Z,3.27
2018-07-20T07:32:46.582Z,4.37
2018-07-20T07:35:15.116Z,4.13
2018-07-20T07:37:43.776Z,4.30
2018-07-20T07:40:12.649Z,3.93
2018-07-20T07:42:41.591Z,4.13
2018-07-20T07:45:10.021Z,4.20
2018-07-20T07:47:38.370Z,3.83
2018-07-20T07:50:06.762Z,3.80
2018-07-20T07:52:35.093Z,4.20
2018-07-20T07:55:04.033Z,3.47
2018-07-20T07:57:32.410Z,3.50
2018-07-20T08:00:01.071Z,3.60
2018-07-20T08:02:29.627Z,3.27
2018-07-20T08:04:58.016Z,3.90
2018-07-20T08:07:26.639Z,3.90
2018-07-20T08:09:55.169Z,3.67
2018-07-20T08:12:23.495Z,4.03
2018-07-20T08:14:52.386Z,3.53
2018-07-20T08:17:21.184Z,4.03
2018-07-20T08:19:49.775Z,3.90
2018-07-20T08:22:18.267Z,3.50
2018-07-20T08:24:46.792Z,3.87
2018-07-20T08:27:15.187Z,3.93
2018-07-20T08:29:43.631Z,4.20
2018-07-20T08:33:36.999Z,3.67
2018-07-20T08:36:05.539Z,3.37
2018-07-20T08:38:33.977Z,3.57
2018-07-20T08:41:02.387Z,3.97
2018-07-20T08:43:31.194Z,4.07
2018-07-20T08:45:59.619Z,3.60
2018-07-20T08:48:28.016Z,4.63
2018-07-20T08:50:56.671Z,3.53
2018-07-20T08:53:25.375Z,3.43
2018-07-20T08:55:53.787Z,3.43
2018-07-20T08:58:22.424Z,3.70
2018-07-20T09:00:50.837Z,3.53
2018-07-20T09:03:19.179Z,3.80
2018-07-20T09:05:47.516Z,4.07
2018-07-20T09:08:15.998Z,3.90
2018-07-20T09:10:44.745Z,3.83
2018-07-20T09:13:13.296Z,3.60
2018-07-20T09:15:41.803Z,3.40
2018-07-20T09:18:10.379Z,3.57
2018-07-20T09:20:38.779Z,4.00
2018-07-20T09:23:07.453Z,3.73
2018-07-20T09:25:36.145Z,3.20
2018-07-20T09:28:04.560Z,3.40
2018-07-20T09:30:32.833Z,3.53
2018-07-20T09:33:01.274Z,3.50
2018-07-20T09:35:29.915Z,3.93
2018-07-20T09:37:58.830Z,3.70
2018-07-20T09:40:27.609Z,3.57
2018-07-20T09:42:56.000Z,4.37
2018-07-20T09:45:24.716Z,3.60
2018-07-20T09:47:53.461Z,3.93
2018-07-20T09:50:21.758Z,3.90
2018-07-20T09:52:50.144Z,4.10
2018-07-20T09:55:18.488Z,3.43
2018-07-20T09:57:47.137Z,3.60
2018-07-20T10:00:22.526Z,3.57
2018-07-20T10:02:51.008Z,3.40
2018-07-20T10:05:19.689Z,3.77
2018-07-20T10:07:48.389Z,3.60
2018-07-20T10:10:16.777Z,3.97
2018-07-20T10:12:45.247Z,3.80
2018-07-20T10:15:13.565Z,3.30
2018-07-20T10:17:41.984Z,3.70
2018-07-20T10:20:10.677Z,4.17
2018-07-20T10:22:39.106Z,4.10
2018-07-20T10:25:07.765Z,3.90
2018-07-20T10:27:36.144Z,4.00
2018-07-20T10:30:05.155Z,3.50
2018-07-20T10:32:33.450Z,3.80
2018-07-20T10:35:02.625Z,3.53
2018-07-20T10:37:31.424Z,4.37
2018-07-20T10:40:00.518Z,3.87
2018-07-20T10:42:29.097Z,3.40
2018-07-20T10:44:57.788Z,3.33
2018-07-20T10:47:26.284Z,3.83
2018-07-20T10:49:54.670Z,4.30
2018-07-20T10:52:23.020Z,3.70
2018-07-20T10:54:51.503Z,3.00
2018-07-20T10:57:20.258Z,4.10
2018-07-20T10:59:48.789Z,3.80
2018-07-20T11:02:17.213Z,3.80
2018-07-20T11:04:46.150Z,3.40
2018-07-20T11:07:14.816Z,3.40
2018-07-20T11:09:43.813Z,3.40
2018-07-20T11:12:12.699Z,3.57
2018-07-20T11:14:41.037Z,3.30
2018-07-20T11:17:09.528Z,3.60
2018-07-20T11:19:37.951Z,3.37
2018-07-20T11:22:07.148Z,3.93
2018-07-20T11:24:35.990Z,3.33
2018-07-20T11:27:04.515Z,3.67
2018-07-20T11:29:32.927Z,3.90
2018-07-20T11:32:01.669Z,3.30
2018-07-20T11:34:30.488Z,4.20
2018-07-20T11:36:59.299Z,3.53
2018-07-20T11:39:27.773Z,3.63
2018-07-20T11:41:56.420Z,3.60
2018-07-20T11:44:24.903Z,3.60
2018-07-20T11:46:53.582Z,3.40
2018-07-20T11:49:21.967Z,3.60
2018-07-20T11:51:50.487Z,3.83
2018-07-20T11:54:18.838Z,3.37
2018-07-20T11:56:47.399Z,3.80
2018-07-20T11:59:17.636Z,3.80
2018-07-20T12:02:00.398Z,3.60
2018-07-20T12:04:28.782Z,3.83
2018-07-20T12:11:43.748Z,3.33
2018-07-20T12:14:12.123Z,3.60
2018-07-20T12:16:40.768Z,3.53
2018-07-20T12:20:33.366Z,3.70
2018-07-20T12:23:02.080Z,3.60
2018-07-20T12:25:30.762Z,3.30
2018-07-20T12:27:59.920Z,3.27
2018-07-20T12:30:28.358Z,3.53
2018-07-20T12:32:56.910Z,3.93
2018-07-20T12:35:25.460Z,3.13
2018-07-20T12:37:53.816Z,3.77
2018-07-20T12:40:22.427Z,3.47
2018-07-20T12:42:50.767Z,3.70
2018-07-20T12:45:19.124Z,3.47
2018-07-20T12:47:47.731Z,3.87
2018-07-20T12:50:16.506Z,3.97
2018-07-20T12:52:44.860Z,3.93
2018-07-20T12:55:13.508Z,3.77
2018-07-20T12:57:41.882Z,3.27
2018-07-20T13:00:10.223Z,3.57
2018-07-20T13:02:38.564Z,3.23
2018-07-20T13:05:06.948Z,3.30
2018-07-20T13:07:35.273Z,4.13
2018-07-20T13:10:03.941Z,3.67
2018-07-20T13:12:32.370Z,3.80
2018-07-20T13:15:00.806Z,3.60
2018-07-20T13:17:29.139Z,3.70
2018-07-20T13:19:57.749Z,3.90
2018-07-20T13:22:26.379Z,3.87
2018-07-20T13:24:54.891Z,3.63
2018-07-20T13:27:23.235Z,3.60
2018-07-20T13:29:51.632Z,3.70
2018-07-20T13:32:20.038Z,4.30
2018-07-20T13:34:48.426Z,3.23
2018-07-20T13:37:17.350Z,3.53
2018-07-20T13:39:45.745Z,3.77
2018-07-20T13:42:14.071Z,3.97
2018-07-20T13:44:42.640Z,3.80
2018-07-20T13:47:10.954Z,4.23
2018-07-20T13:49:39.329Z,3.13
2018-07-20T13:52:07.734Z,3.70
2018-07-20T13:54:36.362Z,3.87
2018-07-20T13:57:05.217Z,3.93
2018-07-20T13:59:33.714Z,3.17
2018-07-20T14:02:02.574Z,4.07
2018-07-20T14:04:31.138Z,3.80
2018-07-20T14:06:59.778Z,3.97
2018-07-20T14:09:28.335Z,4.30
2018-07-20T14:11:56.826Z,3.73
2018-07-20T14:14:25.175Z,4.20
2018-07-20T14:16:53.586Z,4.60
2018-07-20T14:19:21.995Z,3.60
2018-07-20T14:21:50.651Z,3.93
2018-07-20T14:24:18.999Z,3.43
2018-07-20T14:26:47.404Z,3.53
2018-07-20T14:29:16.068Z,3.33
2018-07-20T14:31:44.670Z,3.50
2018-07-20T14:34:13.954Z,3.83
2018-07-20T14:36:42.747Z,3.90
2018-07-20T14:39:13.124Z,3.50
2018-07-20T14:41:42.204Z,3.60
2018-07-20T14:44:10.472Z,3.80
2018-07-20T14:46:39.107Z,3.83
2018-07-20T14:49:07.486Z,4.17
2018-07-20T14:51:36.176Z,3.83
2018-07-20T14:54:04.494Z,3.57
2018-07-20T14:56:33.172Z,3.60
2018-07-20T14:59:01.628Z,3.43
2018-07-20T15:01:29.938Z,3.77
2018-07-20T15:03:58.829Z,3.70
2018-07-20T15:06:27.523Z,3.60
2018-07-20T15:08:55.961Z,3.50
2018-07-20T15:11:24.672Z,3.77
2018-07-20T15:13:53.102Z,3.97
2018-07-20T15:16:21.460Z,3.80
2018-07-20T15:18:49.988Z,3.87
2018-07-20T15:21:18.531Z,4.30
2018-07-20T15:23:46.840Z,3.53
2018-07-20T15:26:15.314Z,3.30
2018-07-20T15:28:44.041Z,3.70
2018-07-20T15:31:12.646Z,3.30
2018-07-20T15:33:41.160Z,4.27
2018-07-20T15:36:09.730Z,4.20
2018-07-20T15:38:38.158Z,3.40
2018-07-20T15:41:06.809Z,3.50
2018-07-20T15:43:35.457Z,3.80
2018-07-20T15:46:06.563Z,3.80
2018-07-20T15:48:32.284Z,4.07
2018-07-20T15:51:00.690Z,3.93
2018-07-20T15:53:37.357Z,3.97
2018-07-20T15:55:57.641Z,3.80
2018-07-20T15:58:26.143Z,4.00
2018-07-20T16:00:54.700Z,3.97
2018-07-20T16:03:23.110Z,4.30
2018-07-20T16:05:51.546Z,4.00
2018-07-20T16:08:19.793Z,4.20
2018-07-20T16:10:48.620Z,4.00
2018-07-20T16:13:17.421Z,4.47
2018-07-20T16:15:46.212Z,4.00
2018-07-20T16:18:14.623Z,4.80
2018-07-20T16:20:43.160Z,3.47
2018-07-20T16:23:11.622Z,5.47
2018-07-20T16:25:40.112Z,10.20
2018-07-20T16:28:08.650Z,9.63
2018-07-20T16:30:37.032Z,3.60
2018-07-20T16:33:05.396Z,4.00
2018-07-20T16:35:34.040Z,3.90
2018-07-20T16:38:02.717Z,3.60
2018-07-20T16:40:31.201Z,4.00
2018-07-20T16:43:00.078Z,3.90
2018-07-20T16:45:28.422Z,3.83
2018-07-20T16:47:56.789Z,3.90
2018-07-20T16:50:25.592Z,4.13
2018-07-20T16:52:54.618Z,9.60
2018-07-20T16:55:23.127Z,4.03
2018-07-20T16:57:51.762Z,4.23
2018-07-20T17:00:20.442Z,3.60
2018-07-20T17:02:48.880Z,3.60
2018-07-20T17:05:17.537Z,3.90
2018-07-20T17:07:46.269Z,4.70
2018-07-20T17:10:14.716Z,3.67
2018-07-20T17:12:43.611Z,3.97
2018-07-20T17:15:12.078Z,3.80
2018-07-20T17:17:40.875Z,4.33
2018-07-20T17:20:09.408Z,4.37
2018-07-20T17:22:37.765Z,4.10
2018-07-20T17:25:06.376Z,3.80
2018-07-20T17:27:35.322Z,3.97
2018-07-20T17:30:03.960Z,4.20
2018-07-20T17:32:32.348Z,4.23
2018-07-20T17:35:00.880Z,4.03
2018-07-20T17:37:29.243Z,4.60
2018-07-20T17:39:57.594Z,3.80
2018-07-20T17:42:25.984Z,3.60
2018-07-20T17:44:54.699Z,4.30
2018-07-20T17:47:23.347Z,4.00
2018-07-20T17:49:52.213Z,4.40
2018-07-20T17:52:21.950Z,3.83
2018-07-20T17:54:50.478Z,3.80
2018-07-20T17:57:19.056Z,4.57
2018-07-20T17:59:47.735Z,4.10
2018-07-20T18:02:16.520Z,4.20
2018-07-20T18:04:45.483Z,4.10
2018-07-20T18:07:14.307Z,4.07
2018-07-20T18:09:42.664Z,4.07
2018-07-20T18:12:10.964Z,3.97
2018-07-20T18:14:39.546Z,4.40
2018-07-20T18:19:47.722Z,3.73
2018-07-20T18:22:16.104Z,4.03
2018-07-20T18:24:44.911Z,3.93
2018-07-20T18:27:13.293Z,3.57
2018-07-20T18:29:41.772Z,3.77
2018-07-20T18:32:10.302Z,3.90
2018-07-20T18:34:38.838Z,3.33
2018-07-20T18:37:07.529Z,3.70
2018-07-20T18:39:36.003Z,3.70
2018-07-20T18:42:04.460Z,4.10
2018-07-20T18:44:32.992Z,4.57
2018-07-20T18:47:01.824Z,4.30
2018-07-20T18:49:30.473Z,4.10
2018-07-20T18:51:58.787Z,4.53
2018-07-20T18:54:27.800Z,4.40
2018-07-20T18:56:56.248Z,4.53
2018-07-20T18:59:24.792Z,4.77
2018-07-20T19:01:53.251Z,4.97
2018-07-20T19:04:21.636Z,4.47
2018-07-20T19:06:50.232Z,4.50
2018-07-20T19:09:19.170Z,4.43
2018-07-20T19:11:47.923Z,4.93
2018-07-20T19:14:16.324Z,4.90
2018-07-20T19:16:44.696Z,5.33
2018-07-20T19:19:13.032Z,5.00
2018-07-20T19:21:41.428Z,4.50
2018-07-20T19:24:09.863Z,4.30
2018-07-20T19:26:38.293Z,4.47
2018-07-20T19:29:07.065Z,4.73
2018-07-20T19:31:35.686Z,4.40
2018-07-20T19:34:04.297Z,4.60
2018-07-20T19:36:33.047Z,5.17
2018-07-20T19:39:01.632Z,4.43
2018-07-20T19:41:30.445Z,4.80
2018-07-20T19:43:59.049Z,5.40
2018-07-20T19:46:27.482Z,5.00
2018-07-20T19:48:56.137Z,4.77
2018-07-20T19:51:25.082Z,6.37
2018-07-20T19:53:53.757Z,8.53
2018-07-20T19:56:22.270Z,7.27
2018-07-20T19:58:51.558Z,7.90
2018-07-20T20:01:20.108Z,7.80
2018-07-20T20:03:48.525Z,8.40
2018-07-20T20:06:17.190Z,8.50
2018-07-20T20:08:46.048Z,7.40
2018-07-20T20:11:14.599Z,8.97
2018-07-20T20:13:43.500Z,8.40
2018-07-20T20:16:11.965Z,6.93
2018-07-20T20:18:40.413Z,5.87
2018-07-20T20:21:08.840Z,5.60
2018-07-20T20:23:37.722Z,6.80
2018-07-20T20:26:06.611Z,5.17
2018-07-20T20:28:35.936Z,5.77
2018-07-20T20:31:04.464Z,5.27
2018-07-20T20:33:32.890Z,5.47
2018-07-20T20:36:01.863Z,5.70
2018-07-20T20:38:30.471Z,5.10
2018-07-20T20:40:58.972Z,5.87
2018-07-20T20:43:27.958Z,4.30
2018-07-20T20:45:56.374Z,4.73
2018-07-20T20:48:24.856Z,4.57
2018-07-20T20:50:53.516Z,5.17
2018-07-20T20:53:21.861Z,5.57
2018-07-20T20:55:50.626Z,6.30
2018-07-20T20:58:19.386Z,5.33
2018-07-20T21:00:48.216Z,4.83
2018-07-20T21:03:16.964Z,5.37
2018-07-20T21:05:45.937Z,6.90
2018-07-20T21:08:14.381Z,6.00
2018-07-20T21:10:42.816Z,6.97
2018-07-20T21:13:11.779Z,6.50
2018-07-20T21:15:40.431Z,7.87
2018-07-20T21:18:09.241Z,6.33
2018-07-20T21:20:38.006Z,6.70
2018-07-20T21:23:06.416Z,6.53
2018-07-20T21:25:35.145Z,7.80
2018-07-20T21:28:03.536Z,6.67
2018-07-20T21:30:32.033Z,6.43
2018-07-20T21:33:00.899Z,7.20
2018-07-20T21:35:29.250Z,6.93
2018-07-20T21:37:57.715Z,6.93
2018-07-20T21:40:26.076Z,6.80
2018-07-20T21:42:54.969Z,6.73
2018-07-20T21:45:23.349Z,6.70
2018-07-20T21:47:52.014Z,7.23
2018-07-20T21:50:20.940Z,6.90
2018-07-20T21:52:49.639Z,6.13
2018-07-20T21:55:18.065Z,6.80
2018-07-20T21:57:46.819Z,6.30
2018-07-20T22:00:18.488Z,6.40
2018-07-20T22:02:47.857Z,6.60
2018-07-20T22:05:16.652Z,6.40
2018-07-20T22:07:45.079Z,6.33
2018-07-20T22:10:13.772Z,7.07
2018-07-20T22:12:42.356Z,6.50
2018-07-20T22:15:10.923Z,6.00
2018-07-20T22:17:39.569Z,7.13
2018-07-20T22:20:09.473Z,5.97
2018-07-20T22:22:37.819Z,6.50
2018-07-20T22:25:07.218Z,7.00
2018-07-20T22:27:36.074Z,6.20
2018-07-20T22:30:05.162Z,7.07
2018-07-20T22:32:34.030Z,10.00
2018-07-20T22:35:02.877Z,6.97
2018-07-20T22:37:31.620Z,7.20
2018-07-20T22:40:00.030Z,6.43
2018-07-20T22:42:29.347Z,5.90
2018-07-20T22:44:57.768Z,6.10
2018-07-20T22:47:26.417Z,6.60
2018-07-20T22:49:54.780Z,6.50
2018-07-20T22:52:23.592Z,6.10
2018-07-20T22:54:51.922Z,6.90
2018-07-20T22:57:20.300Z,6.03
2018-07-20T22:59:48.740Z,6.80
2018-07-20T23:02:17.337Z,5.67
2018-07-20T23:04:45.793Z,5.90
2018-07-20T23:07:14.158Z,6.70
2018-07-20T23:09:43.043Z,6.13
2018-07-20T23:12:11.474Z,6.63
2018-07-20T23:14:40.186Z,6.20
2018-07-20T23:17:08.880Z,6.33
2018-07-20T23:19:37.583Z,6.70
2018-07-20T23:22:06.235Z,5.80
2018-07-20T23:24:34.953Z,5.80
2018-07-20T23:27:03.793Z,5.60
2018-07-20T23:29:32.130Z,7.40
2018-07-20T23:32:00.446Z,6.00
2018-07-20T23:34:28.998Z,6.00
2018-07-20T23:36:57.431Z,5.90
2018-07-20T23:39:25.958Z,5.97
2018-07-20T23:41:54.497Z,5.80
2018-07-20T23:44:22.898Z,5.83
2018-07-20T23:46:51.702Z,5.90
2018-07-20T23:49:20.522Z,5.50
2018-07-20T23:51:48.856Z,5.67
2018-07-20T23:54:17.192Z,5.13
2018-07-20T23:56:45.749Z,5.40
2018-07-20T23:59:14.403Z,5.90
